sensor_id;sensor_type;location;lat;lon;timestamp;pressure;altitude;pressure_sealevel;temperature;humidity
5996;BME280;3026;53.612;7.278;2023-02-26T00:01:02;101882.81;;;1.73;100.00
5996;BME280;3026;53.612;7.278;2023-02-26T00:03:28;101874.94;;;1.70;100.00
5996;BME280;3026;53.612;7.278;2023-02-26T00:05:59;101889.25;;;1.70;100.00
5996;BME280;3026;53.612;7.278;2023-02-26T00:08:26;101891.34;;;1.65;100.00
5996;BME280;3026;53.612;7.278;2023-02-26T00:10:56;101894.63;;;1.70;100.00
5996;BME280;3026;53.612;7.278;2023-02-26T00:13:23;101895.38;;;1.72;100.00
5996;BME280;3026;53.612;7.278;2023-02-26T00:15:55;101892.69;;;1.72;100.00
5996;BME280;3026;53.612;7.278;2023-02-26T00:18:24;101906.75;;;1.78;100.00
5996;BME280;3026;53.612;7.278;2023-02-26T00:20:52;101905.69;;;1.80;100.00
5996;BME280;3026;53.612;7.278;2023-02-26T00:23:21;101900.59;;;1.75;100.00
5996;BME280;3026;53.612;7.278;2023-02-26T00:25:49;101919.25;;;1.79;100.00
5996;BME280;3026;53.612;7.278;2023-02-26T00:28:16;101921.16;;;1.77;100.00
5996;BME280;3026;53.612;7.278;2023-02-26T00:30:43;101913.25;;;1.73;100.00
5996;BME280;3026;53.612;7.278;2023-02-26T00:33:11;101914.41;;;1.69;100.00
5996;BME280;3026;53.612;7.278;2023-02-26T00:35:38;101926.00;;;1.70;100.00
5996;BME280;3026;53.612;7.278;2023-02-26T00:38:06;101919.97;;;1.66;100.00
5996;BME280;3026;53.612;7.278;2023-02-26T00:40:39;101920.81;;;1.67;100.00
5996;BME280;3026;53.612;7.278;2023-02-26T00:43:13;101921.69;;;1.67;100.00
5996;BME280;3026;53.612;7.278;2023-02-26T00:45:44;101929.94;;;1.64;100.00
5996;BME280;3026;53.612;7.278;2023-02-26T00:48:39;101925.53;;;1.63;100.00
5996;BME280;3026;53.612;7.278;2023-02-26T00:51:17;101938.16;;;1.61;100.00
5996;BME280;3026;53.612;7.278;2023-02-26T00:53:48;101940.06;;;1.59;100.00
5996;BME280;3026;53.612;7.278;2023-02-26T00:56:19;101936.63;;;1.57;100.00
5996;BME280;3026;53.612;7.278;2023-02-26T00:58:46;101942.00;;;1.57;100.00
5996;BME280;3026;53.612;7.278;2023-02-26T01:01:13;101947.38;;;1.57;100.00
5996;BME280;3026;53.612;7.278;2023-02-26T01:03:40;101941.22;;;1.55;100.00
5996;BME280;3026;53.612;7.278;2023-02-26T01:06:10;101936.81;;;1.54;100.00
5996;BME280;3026;53.612;7.278;2023-02-26T01:08:43;101929.06;;;1.48;100.00
5996;BME280;3026;53.612;7.278;2023-02-26T01:11:14;101944.25;;;1.49;100.00
5996;BME280;3026;53.612;7.278;2023-02-26T01:13:43;101956.56;;;1.53;100.00
5996;BME280;3026;53.612;7.278;2023-02-26T01:16:14;101969.94;;;1.55;100.00
5996;BME280;3026;53.612;7.278;2023-02-26T01:18:51;101965.41;;;1.55;100.00
5996;BME280;3026;53.612;7.278;2023-02-26T01:21:25;101968.19;;;1.54;100.00
5996;BME280;3026;53.612;7.278;2023-02-26T01:23:54;101968.28;;;1.52;100.00
5996;BME280;3026;53.612;7.278;2023-02-26T01:26:23;101975.38;;;1.53;100.00
5996;BME280;3026;53.612;7.278;2023-02-26T01:28:54;101984.50;;;1.51;100.00
5996;BME280;3026;53.612;7.278;2023-02-26T01:31:31;101978.22;;;1.50;100.00
5996;BME280;3026;53.612;7.278;2023-02-26T01:34:03;101970.44;;;1.45;100.00
5996;BME280;3026;53.612;7.278;2023-02-26T01:36:35;101974.94;;;1.45;100.00
5996;BME280;3026;53.612;7.278;2023-02-26T01:39:13;101980.31;;;1.45;100.00
5996;BME280;3026;53.612;7.278;2023-02-26T01:41:47;101984.16;;;1.41;100.00
5996;BME280;3026;53.612;7.278;2023-02-26T01:44:25;101980.50;;;1.42;100.00
5996;BME280;3026;53.612;7.278;2023-02-26T01:46:59;101987.78;;;1.40;100.00
5996;BME280;3026;53.612;7.278;2023-02-26T01:49:29;101991.41;;;1.39;100.00
5996;BME280;3026;53.612;7.278;2023-02-26T01:51:57;101992.72;;;1.32;100.00
5996;BME280;3026;53.612;7.278;2023-02-26T01:54:28;101990.97;;;1.31;100.00
5996;BME280;3026;53.612;7.278;2023-02-26T01:56:59;101996.59;;;1.26;100.00
5996;BME280;3026;53.612;7.278;2023-02-26T01:59:31;102002.84;;;1.27;100.00
5996;BME280;3026;53.612;7.278;2023-02-26T02:02:00;101998.50;;;1.24;100.00
5996;BME280;3026;53.612;7.278;2023-02-26T02:04:29;102000.50;;;1.21;100.00
5996;BME280;3026;53.612;7.278;2023-02-26T02:06:57;102008.56;;;1.21;100.00
5996;BME280;3026;53.612;7.278;2023-02-26T02:09:24;102014.88;;;1.20;100.00
5996;BME280;3026;53.612;7.278;2023-02-26T02:12:06;102010.63;;;1.15;100.00
5996;BME280;3026;53.612;7.278;2023-02-26T02:14:42;102009.06;;;1.11;100.00
5996;BME280;3026;53.612;7.278;2023-02-26T02:17:15;102012.69;;;1.10;100.00
5996;BME280;3026;53.612;7.278;2023-02-26T02:23:00;102019.34;;;1.03;100.00
5996;BME280;3026;53.612;7.278;2023-02-26T02:25:55;102022.19;;;1.00;100.00
5996;BME280;3026;53.612;7.278;2023-02-26T02:28:36;102024.09;;;0.98;100.00
5996;BME280;3026;53.612;7.278;2023-02-26T02:31:15;102030.34;;;0.99;100.00
5996;BME280;3026;53.612;7.278;2023-02-26T02:33:49;102028.53;;;0.99;100.00
5996;BME280;3026;53.612;7.278;2023-02-26T02:36:21;102029.66;;;0.95;100.00
5996;BME280;3026;53.612;7.278;2023-02-26T02:38:54;102047.31;;;0.99;100.00
5996;BME280;3026;53.612;7.278;2023-02-26T02:41:26;102038.50;;;0.97;100.00
5996;BME280;3026;53.612;7.278;2023-02-26T02:43:58;102051.13;;;0.95;100.00
5996;BME280;3026;53.612;7.278;2023-02-26T02:46:30;102045.75;;;0.95;100.00
5996;BME280;3026;53.612;7.278;2023-02-26T02:49:00;102049.41;;;0.94;100.00
5996;BME280;3026;53.612;7.278;2023-02-26T02:51:32;102053.03;;;0.93;100.00
5996;BME280;3026;53.612;7.278;2023-02-26T02:54:04;102056.66;;;0.92;100.00
5996;BME280;3026;53.612;7.278;2023-02-26T02:56:34;102055.06;;;0.88;100.00
5996;BME280;3026;53.612;7.278;2023-02-26T02:59:10;102063.91;;;0.90;100.00
5996;BME280;3026;53.612;7.278;2023-02-26T03:01:41;102065.81;;;0.88;100.00
5996;BME280;3026;53.612;7.278;2023-02-26T03:04:11;102069.47;;;0.87;100.00
5996;BME280;3026;53.612;7.278;2023-02-26T03:06:39;102066.00;;;0.85;100.00
5996;BME280;3026;53.612;7.278;2023-02-26T03:09:08;102066.84;;;0.85;100.00
5996;BME280;3026;53.612;7.278;2023-02-26T03:11:36;102080.19;;;0.87;100.00
5996;BME280;3026;53.612;7.278;2023-02-26T03:14:07;102087.47;;;0.85;100.00
5996;BME280;3026;53.612;7.278;2023-02-26T03:16:59;102093.88;;;0.82;100.00
5996;BME280;3026;53.612;7.278;2023-02-26T03:19:30;102093.00;;;0.82;100.00
5996;BME280;3026;53.612;7.278;2023-02-26T03:22:06;102092.16;;;0.81;100.00
5996;BME280;3026;53.612;7.278;2023-02-26T03:24:36;102095.81;;;0.79;100.00
5996;BME280;3026;53.612;7.278;2023-02-26T03:27:10;102098.50;;;0.79;100.00
5996;BME280;3026;53.612;7.278;2023-02-26T03:29:44;102108.38;;;0.78;100.00
5996;BME280;3026;53.612;7.278;2023-02-26T03:32:17;102099.56;;;0.76;100.00
5996;BME280;3026;53.612;7.278;2023-02-26T03:34:50;102100.59;;;0.74;100.00
5996;BME280;3026;53.612;7.278;2023-02-26T03:37:22;102111.16;;;0.77;100.00
5996;BME280;3026;53.612;7.278;2023-02-26T03:39:54;102115.56;;;0.78;100.00
5996;BME280;3026;53.612;7.278;2023-02-26T03:42:26;102111.16;;;0.77;100.00
5996;BME280;3026;53.612;7.278;2023-02-26T03:44:56;102112.03;;;0.77;100.00
5996;BME280;3026;53.612;7.278;2023-02-26T03:47:27;102126.16;;;0.81;100.00
5996;BME280;3026;53.612;7.278;2023-02-26T03:49:58;102130.59;;;0.82;100.00
5996;BME280;3026;53.612;7.278;2023-02-26T03:52:30;102133.22;;;0.83;100.00
5996;BME280;3026;53.612;7.278;2023-02-26T03:55:01;102133.13;;;0.85;100.00
5996;BME280;3026;53.612;7.278;2023-02-26T03:57:30;102143.78;;;0.86;100.00
5996;BME280;3026;53.612;7.278;2023-02-26T03:59:57;102134.94;;;0.84;100.00
5996;BME280;3026;53.612;7.278;2023-02-26T04:02:29;102143.69;;;0.88;100.00
5996;BME280;3026;53.612;7.278;2023-02-26T04:04:59;102146.22;;;0.91;100.00
5996;BME280;3026;53.612;7.278;2023-02-26T04:07:27;102156.09;;;0.91;100.00
5996;BME280;3026;53.612;7.278;2023-02-26T04:09:55;102150.72;;;0.91;100.00
5996;BME280;3026;53.612;7.278;2023-02-26T04:12:23;102153.50;;;0.89;100.00
5996;BME280;3026;53.612;7.278;2023-02-26T04:14:51;102166.69;;;0.94;100.00
5996;BME280;3026;53.612;7.278;2023-02-26T04:17:18;102158.69;;;0.92;100.00
5996;BME280;3026;53.612;7.278;2023-02-26T04:19:46;102176.41;;;0.96;100.00
5996;BME280;3026;53.612;7.278;2023-02-26T04:22:13;102179.72;;;1.01;100.00
5996;BME280;3026;53.612;7.278;2023-02-26T04:24:40;102188.44;;;1.06;100.00
5996;BME280;3026;53.612;7.278;2023-02-26T04:27:07;102191.91;;;1.08;100.00
5996;BME280;3026;53.612;7.278;2023-02-26T04:29:34;102190.16;;;1.07;100.00
5996;BME280;3026;53.612;7.278;2023-02-26T04:32:02;102183.06;;;1.06;100.00
5996;BME280;3026;53.612;7.278;2023-02-26T04:34:28;102192.94;;;1.06;100.00
5996;BME280;3026;53.612;7.278;2023-02-26T04:36:57;102204.53;;;1.06;100.00
5996;BME280;3026;53.612;7.278;2023-02-26T04:39:24;102201.06;;;1.04;100.00
5996;BME280;3026;53.612;7.278;2023-02-26T04:41:51;102196.56;;;1.05;100.00
5996;BME280;3026;53.612;7.278;2023-02-26T04:44:18;102211.81;;;1.04;100.00
5996;BME280;3026;53.612;7.278;2023-02-26T04:46:44;102219.78;;;1.06;100.00
5996;BME280;3026;53.612;7.278;2023-02-26T04:49:11;102216.16;;;1.07;100.00
5996;BME280;3026;53.612;7.278;2023-02-26T04:51:38;102217.25;;;1.03;100.00
5996;BME280;3026;53.612;7.278;2023-02-26T04:54:07;102222.41;;;1.07;100.00
5996;BME280;3026;53.612;7.278;2023-02-26T04:56:34;102232.28;;;1.07;100.00
5996;BME280;3026;53.612;7.278;2023-02-26T04:59:01;102235.03;;;1.05;100.00
5996;BME280;3026;53.612;7.278;2023-02-26T05:01:29;102231.53;;;1.03;100.00
5996;BME280;3026;53.612;7.278;2023-02-26T05:03:56;102242.28;;;1.03;100.00
5996;BME280;3026;53.612;7.278;2023-02-26T05:06:23;102242.28;;;1.03;100.00
5996;BME280;3026;53.612;7.278;2023-02-26T05:08:50;102236.13;;;1.01;100.00
5996;BME280;3026;53.612;7.278;2023-02-26T05:11:19;102241.66;;;0.98;100.00
5996;BME280;3026;53.612;7.278;2023-02-26T05:13:46;102239.13;;;0.95;100.00
5996;BME280;3026;53.612;7.278;2023-02-26T05:16:13;102253.50;;;0.94;100.00
5996;BME280;3026;53.612;7.278;2023-02-26T05:18:40;102255.38;;;0.92;100.00
5996;BME280;3026;53.612;7.278;2023-02-26T05:21:07;102253.66;;;0.91;100.00
5996;BME280;3026;53.612;7.278;2023-02-26T05:23:34;102253.72;;;0.90;100.00
5996;BME280;3026;53.612;7.278;2023-02-26T05:26:00;102260.03;;;0.88;100.00
5996;BME280;3026;53.612;7.278;2023-02-26T05:28:29;102262.81;;;0.87;100.00
5996;BME280;3026;53.612;7.278;2023-02-26T05:30:58;102253.81;;;0.88;100.00
5996;BME280;3026;53.612;7.278;2023-02-26T05:33:26;102264.53;;;0.88;100.00
5996;BME280;3026;53.612;7.278;2023-02-26T05:35:53;102260.91;;;0.89;100.00
5996;BME280;3026;53.612;7.278;2023-02-26T05:38:20;102262.56;;;0.92;100.00
5996;BME280;3026;53.612;7.278;2023-02-26T05:40:47;102271.38;;;0.95;100.00
5996;BME280;3026;53.612;7.278;2023-02-26T05:43:14;102264.09;;;0.97;100.00
5996;BME280;3026;53.612;7.278;2023-02-26T05:45:43;102268.44;;;1.00;100.00
5996;BME280;3026;53.612;7.278;2023-02-26T05:48:10;102267.41;;;1.02;100.00
5996;BME280;3026;53.612;7.278;2023-02-26T05:50:37;102271.72;;;1.06;100.00
5996;BME280;3026;53.612;7.278;2023-02-26T05:53:04;102276.13;;;1.07;100.00
5996;BME280;3026;53.612;7.278;2023-02-26T05:55:31;102272.50;;;1.08;100.00
5996;BME280;3026;53.612;7.278;2023-02-26T05:57:58;102275.97;;;1.10;100.00
5996;BME280;3026;53.612;7.278;2023-02-26T06:00:25;102281.19;;;1.13;100.00
5996;BME280;3026;53.612;7.278;2023-02-26T06:02:54;102281.09;;;1.15;100.00
5996;BME280;3026;53.612;7.278;2023-02-26T06:05:21;102284.53;;;1.19;100.00
5996;BME280;3026;53.612;7.278;2023-02-26T06:07:48;102282.63;;;1.21;100.00
5996;BME280;3026;53.612;7.278;2023-02-26T06:10:16;102287.84;;;1.24;100.00
5996;BME280;3026;53.612;7.278;2023-02-26T06:12:43;102293.22;;;1.24;100.00
5996;BME280;3026;53.612;7.278;2023-02-26T06:15:10;102287.91;;;1.22;100.00
5996;BME280;3026;53.612;7.278;2023-02-26T06:17:38;102303.78;;;1.27;100.00
5996;BME280;3026;53.612;7.278;2023-02-26T06:20:08;102289.44;;;1.28;100.00
5996;BME280;3026;53.612;7.278;2023-02-26T06:22:35;102299.88;;;1.34;100.00
5996;BME280;3026;53.612;7.278;2023-02-26T06:25:02;102314.75;;;1.41;100.00
5996;BME280;3026;53.612;7.278;2023-02-26T06:27:30;102309.28;;;1.42;100.00
5996;BME280;3026;53.612;7.278;2023-02-26T06:29:57;102313.63;;;1.45;100.00
5996;BME280;3026;53.612;7.278;2023-02-26T06:32:24;102316.22;;;1.46;100.00
5996;BME280;3026;53.612;7.278;2023-02-26T06:34:51;102322.63;;;1.44;100.00
5996;BME280;3026;53.612;7.278;2023-02-26T06:37:19;102328.81;;;1.46;100.00
5996;BME280;3026;53.612;7.278;2023-02-26T06:39:46;102332.38;;;1.46;100.00
5996;BME280;3026;53.612;7.278;2023-02-26T06:42:13;102331.31;;;1.49;100.00
5996;BME280;3026;53.612;7.278;2023-02-26T06:44:40;102341.94;;;1.52;100.00
5996;BME280;3026;53.612;7.278;2023-02-26T06:47:07;102341.78;;;1.55;100.00
5996;BME280;3026;53.612;7.278;2023-02-26T06:49:34;102341.47;;;1.61;100.00
5996;BME280;3026;53.612;7.278;2023-02-26T06:52:00;102352.09;;;1.64;100.00
5996;BME280;3026;53.612;7.278;2023-02-26T06:54:29;102346.63;;;1.66;100.00
5996;BME280;3026;53.612;7.278;2023-02-26T06:56:56;102353.47;;;1.71;100.00
5996;BME280;3026;53.612;7.278;2023-02-26T06:59:23;102353.34;;;1.74;100.00
5996;BME280;3026;53.612;7.278;2023-02-26T07:01:50;102355.88;;;1.78;100.00
5996;BME280;3026;53.612;7.278;2023-02-26T07:04:17;102354.06;;;1.78;100.00
5996;BME280;3026;53.612;7.278;2023-02-26T07:06:44;102365.50;;;1.82;100.00
5996;BME280;3026;53.612;7.278;2023-02-26T07:09:11;102359.34;;;1.80;100.00
5996;BME280;3026;53.612;7.278;2023-02-26T07:11:39;102367.25;;;1.83;100.00
5996;BME280;3026;53.612;7.278;2023-02-26T07:14:06;102365.44;;;1.83;100.00
5996;BME280;3026;53.612;7.278;2023-02-26T07:16:33;102373.50;;;1.83;100.00
5996;BME280;3026;53.612;7.278;2023-02-26T07:19:00;102381.34;;;1.88;100.00
5996;BME280;3026;53.612;7.278;2023-02-26T07:21:27;102386.56;;;1.91;100.00
5996;BME280;3026;53.612;7.278;2023-02-26T07:23:54;102389.09;;;1.94;100.00
5996;BME280;3026;53.612;7.278;2023-02-26T07:26:21;102388.97;;;1.97;100.00
5996;BME280;3026;53.612;7.278;2023-02-26T07:28:50;102393.06;;;2.04;100.00
5996;BME280;3026;53.612;7.278;2023-02-26T07:31:17;102397.66;;;2.02;100.00
5996;BME280;3026;53.612;7.278;2023-02-26T07:33:43;102409.97;;;2.06;100.00
5996;BME280;3026;53.612;7.278;2023-02-26T07:36:10;102406.19;;;2.10;100.00
5996;BME280;3026;53.612;7.278;2023-02-26T07:38:37;102408.72;;;2.13;100.00
5996;BME280;3026;53.612;7.278;2023-02-26T07:41:04;102409.25;;;2.20;100.00
5996;BME280;3026;53.612;7.278;2023-02-26T07:43:31;102415.38;;;2.23;100.00
5996;BME280;3026;53.612;7.278;2023-02-26T07:46:00;102410.75;;;2.25;100.00
5996;BME280;3026;53.612;7.278;2023-02-26T07:48:26;102423.88;;;2.31;100.00
5996;BME280;3026;53.612;7.278;2023-02-26T07:50:54;102412.97;;;2.34;100.00
5996;BME280;3026;53.612;7.278;2023-02-26T07:53:21;102426.88;;;2.43;100.00
5996;BME280;3026;53.612;7.278;2023-02-26T07:55:48;102415.81;;;2.49;100.00
5996;BME280;3026;53.612;7.278;2023-02-26T07:58:15;102431.66;;;2.55;100.00
5996;BME280;3026;53.612;7.278;2023-02-26T08:00:42;102436.78;;;2.59;100.00
5996;BME280;3026;53.612;7.278;2023-02-26T08:03:10;102435.50;;;2.67;100.00
5996;BME280;3026;53.612;7.278;2023-02-26T08:05:37;102437.94;;;2.71;100.00
5996;BME280;3026;53.612;7.278;2023-02-26T08:08:04;102446.63;;;2.76;100.00
5996;BME280;3026;53.612;7.278;2023-02-26T08:10:31;102446.31;;;2.82;100.00
5996;BME280;3026;53.612;7.278;2023-02-26T08:12:58;102440.56;;;2.88;100.00
5996;BME280;3026;53.612;7.278;2023-02-26T08:15:25;102455.28;;;2.99;100.00
5996;BME280;3026;53.612;7.278;2023-02-26T08:17:52;102450.53;;;3.04;100.00
5996;BME280;3026;53.612;7.278;2023-02-26T08:20:22;102451.13;;;3.09;100.00
5996;BME280;3026;53.612;7.278;2023-02-26T08:22:50;102456.78;;;3.20;100.00
5996;BME280;3026;53.612;7.278;2023-02-26T08:25:17;102457.25;;;3.28;100.00
5996;BME280;3026;53.612;7.278;2023-02-26T08:27:44;102455.91;;;3.35;100.00
5996;BME280;3026;53.612;7.278;2023-02-26T08:30:12;102456.53;;;3.40;100.00
5996;BME280;3026;53.612;7.278;2023-02-26T08:32:39;102465.84;;;3.50;100.00
5996;BME280;3026;53.612;7.278;2023-02-26T08:35:07;102475.16;;;3.61;100.00
5996;BME280;3026;53.612;7.278;2023-02-26T08:37:36;102473.16;;;3.64;100.00
5996;BME280;3026;53.612;7.278;2023-02-26T08:40:05;102473.50;;;3.74;100.00
5996;BME280;3026;53.612;7.278;2023-02-26T08:42:33;102482.94;;;3.81;100.00
5996;BME280;3026;53.612;7.278;2023-02-26T08:45:00;102484.94;;;3.93;100.00
5996;BME280;3026;53.612;7.278;2023-02-26T08:47:27;102482.84;;;3.98;100.00
5996;BME280;3026;53.612;7.278;2023-02-26T08:49:54;102491.19;;;4.09;100.00
5996;BME280;3026;53.612;7.278;2023-02-26T08:52:21;102492.38;;;4.20;100.00
5996;BME280;3026;53.612;7.278;2023-02-26T08:54:50;102501.59;;;4.31;100.00
5996;BME280;3026;53.612;7.278;2023-02-26T08:57:16;102508.84;;;4.45;100.00
5996;BME280;3026;53.612;7.278;2023-02-26T08:59:43;102514.28;;;4.59;100.00
5996;BME280;3026;53.612;7.278;2023-02-26T09:02:11;102517.72;;;4.77;100.00
5996;BME280;3026;53.612;7.278;2023-02-26T09:04:38;102513.75;;;4.83;100.00
5996;BME280;3026;53.612;7.278;2023-02-26T09:07:05;102514.91;;;4.93;100.00
5996;BME280;3026;53.612;7.278;2023-02-26T09:09:32;102525.47;;;5.12;100.00
5996;BME280;3026;53.612;7.278;2023-02-26T09:12:00;102524.50;;;5.27;100.00
5996;BME280;3026;53.612;7.278;2023-02-26T09:14:27;102532.22;;;5.47;100.00
5996;BME280;3026;53.612;7.278;2023-02-26T09:16:54;102537.50;;;5.63;100.00
5996;BME280;3026;53.612;7.278;2023-02-26T09:19:21;102533.00;;;5.76;100.00
5996;BME280;3026;53.612;7.278;2023-02-26T09:21:48;102530.47;;;5.88;100.00
5996;BME280;3026;53.612;7.278;2023-02-26T09:24:18;102535.75;;;5.91;100.00
5996;BME280;3026;53.612;7.278;2023-02-26T09:26:47;102533.38;;;5.99;100.00
5996;BME280;3026;53.612;7.278;2023-02-26T09:29:15;102543.00;;;6.17;100.00
5996;BME280;3026;53.612;7.278;2023-02-26T09:31:43;102540.44;;;6.28;100.00
5996;BME280;3026;53.612;7.278;2023-02-26T09:34:10;102541.34;;;6.41;100.00
5996;BME280;3026;53.612;7.278;2023-02-26T09:36:37;102543.56;;;6.62;100.00
5996;BME280;3026;53.612;7.278;2023-02-26T09:39:04;102549.25;;;6.84;100.00
5996;BME280;3026;53.612;7.278;2023-02-26T09:41:33;102545.78;;;7.08;100.00
5996;BME280;3026;53.612;7.278;2023-02-26T09:44:19;102546.19;;;7.14;100.00
5996;BME280;3026;53.612;7.278;2023-02-26T09:46:55;102546.88;;;7.18;100.00
5996;BME280;3026;53.612;7.278;2023-02-26T09:49:34;102549.13;;;7.37;100.00
5996;BME280;3026;53.612;7.278;2023-02-26T09:52:17;102559.44;;;7.44;100.00
5996;BME280;3026;53.612;7.278;2023-02-26T09:54:47;102549.09;;;7.49;100.00
5996;BME280;3026;53.612;7.278;2023-02-26T09:57:23;102558.13;;;7.37;100.00
5996;BME280;3026;53.612;7.278;2023-02-26T09:59:53;102573.75;;;7.46;100.00
5996;BME280;3026;53.612;7.278;2023-02-26T10:02:23;102572.44;;;7.39;100.00
5996;BME280;3026;53.612;7.278;2023-02-26T10:05:03;102577.00;;;7.51;100.00
5996;BME280;3026;53.612;7.278;2023-02-26T10:07:40;102584.13;;;7.78;100.00
5996;BME280;3026;53.612;7.278;2023-02-26T10:10:18;102584.38;;;8.11;100.00
5996;BME280;3026;53.612;7.278;2023-02-26T10:12:48;102576.84;;;8.15;100.00
5996;BME280;3026;53.612;7.278;2023-02-26T10:15:21;102578.09;;;8.35;100.00
5996;BME280;3026;53.612;7.278;2023-02-26T10:18:05;102591.59;;;8.71;100.00
5996;BME280;3026;53.612;7.278;2023-02-26T10:20:37;102581.94;;;8.67;100.00
5996;BME280;3026;53.612;7.278;2023-02-26T10:23:10;102583.81;;;8.43;99.54
5996;BME280;3026;53.612;7.278;2023-02-26T10:25:41;102580.16;;;8.55;100.00
5996;BME280;3026;53.612;7.278;2023-02-26T10:28:33;102586.31;;;8.33;99.36
5996;BME280;3026;53.612;7.278;2023-02-26T10:31:08;102582.47;;;8.25;99.30
5996;BME280;3026;53.612;7.278;2023-02-26T10:33:49;102585.63;;;8.66;100.00
5996;BME280;3026;53.612;7.278;2023-02-26T10:36:23;102594.41;;;8.94;99.68
5996;BME280;3026;53.612;7.278;2023-02-26T10:38:56;102591.47;;;9.19;99.73
5996;BME280;3026;53.612;7.278;2023-02-26T10:41:26;102589.25;;;9.24;99.02
5996;BME280;3026;53.612;7.278;2023-02-26T10:44:00;102583.56;;;9.16;97.81
5996;BME280;3026;53.612;7.278;2023-02-26T10:46:41;102591.00;;;9.48;97.53
5996;BME280;3026;53.612;7.278;2023-02-26T10:49:31;102595.22;;;9.41;96.00
5996;BME280;3026;53.612;7.278;2023-02-26T10:52:10;102592.00;;;9.47;95.49
5996;BME280;3026;53.612;7.278;2023-02-26T10:54:45;102595.44;;;9.38;95.74
5996;BME280;3026;53.612;7.278;2023-02-26T10:57:18;102596.97;;;9.42;95.78
5996;BME280;3026;53.612;7.278;2023-02-26T10:59:46;102610.31;;;9.33;95.77
5996;BME280;3026;53.612;7.278;2023-02-26T11:02:31;102602.13;;;9.22;95.30
5996;BME280;3026;53.612;7.278;2023-02-26T11:05:00;102620.09;;;9.36;95.94
5996;BME280;3026;53.612;7.278;2023-02-26T11:07:29;102618.75;;;9.42;96.28
5996;BME280;3026;53.612;7.278;2023-02-26T11:09:58;102615.75;;;9.33;95.67
5996;BME280;3026;53.612;7.278;2023-02-26T11:12:25;102618.84;;;9.29;95.63
5996;BME280;3026;53.612;7.278;2023-02-26T11:14:53;102610.94;;;9.48;96.39
5996;BME280;3026;53.612;7.278;2023-02-26T11:17:24;102631.13;;;9.68;95.98
5996;BME280;3026;53.612;7.278;2023-02-26T11:19:56;102627.81;;;9.76;95.16
5996;BME280;3026;53.612;7.278;2023-02-26T11:22:25;102634.84;;;9.67;94.58
5996;BME280;3026;53.612;7.278;2023-02-26T11:24:55;102632.38;;;9.98;94.36
5996;BME280;3026;53.612;7.278;2023-02-26T11:27:25;102648.22;;;10.04;93.23
5996;BME280;3026;53.612;7.278;2023-02-26T11:29:56;102644.03;;;9.88;92.79
5996;BME280;3026;53.612;7.278;2023-02-26T11:32:30;102645.97;;;9.42;92.50
5996;BME280;3026;53.612;7.278;2023-02-26T11:34:58;102640.78;;;9.39;93.02
5996;BME280;3026;53.612;7.278;2023-02-26T11:37:29;102637.72;;;9.08;93.30
5996;BME280;3026;53.612;7.278;2023-02-26T11:39:58;102652.78;;;9.01;93.36
5996;BME280;3026;53.612;7.278;2023-02-26T11:42:26;102655.16;;;9.05;93.82
5996;BME280;3026;53.612;7.278;2023-02-26T11:44:53;102655.44;;;9.25;94.36
5996;BME280;3026;53.612;7.278;2023-02-26T11:47:27;102662.44;;;9.40;94.12
5996;BME280;3026;53.612;7.278;2023-02-26T11:50:12;102650.50;;;9.19;93.28
5996;BME280;3026;53.612;7.278;2023-02-26T11:52:43;102653.81;;;9.11;93.67
5996;BME280;3026;53.612;7.278;2023-02-26T11:55:18;102653.28;;;8.95;93.58
5996;BME280;3026;53.612;7.278;2023-02-26T11:57:49;102642.84;;;8.89;93.37
5996;BME280;3026;53.612;7.278;2023-02-26T12:00:22;102645.59;;;9.00;93.50
5996;BME280;3026;53.612;7.278;2023-02-26T12:02:50;102645.84;;;8.97;93.01
5996;BME280;3026;53.612;7.278;2023-02-26T12:05:22;102641.66;;;8.93;93.11
5996;BME280;3026;53.612;7.278;2023-02-26T12:07:48;102641.34;;;8.85;93.96
5996;BME280;3026;53.612;7.278;2023-02-26T12:10:17;102641.03;;;9.00;93.82
5996;BME280;3026;53.612;7.278;2023-02-26T12:12:56;102639.13;;;8.90;93.51
5996;BME280;3026;53.612;7.278;2023-02-26T12:15:31;102646.09;;;8.94;92.97
5996;BME280;3026;53.612;7.278;2023-02-26T12:18:38;102651.75;;;8.91;92.38
5996;BME280;3026;53.612;7.278;2023-02-26T12:21:20;102655.31;;;8.80;92.51
5996;BME280;3026;53.612;7.278;2023-02-26T12:24:12;102647.72;;;8.72;92.81
5996;BME280;3026;53.612;7.278;2023-02-26T12:26:48;102639.53;;;8.61;93.24
5996;BME280;3026;53.612;7.278;2023-02-26T12:29:38;102642.97;;;8.63;93.58
5996;BME280;3026;53.612;7.278;2023-02-26T12:32:17;102638.09;;;8.80;93.95
5996;BME280;3026;53.612;7.278;2023-02-26T12:35:07;102639.78;;;8.93;93.40
5996;BME280;3026;53.612;7.278;2023-02-26T12:37:49;102643.88;;;8.99;93.71
5996;BME280;3026;53.612;7.278;2023-02-26T12:40:33;102650.09;;;9.12;93.93
5996;BME280;3026;53.612;7.278;2023-02-26T12:43:08;102651.03;;;9.00;93.25
5996;BME280;3026;53.612;7.278;2023-02-26T12:45:44;102646.38;;;8.78;93.16
5996;BME280;3026;53.612;7.278;2023-02-26T12:48:46;102655.22;;;8.45;92.99
5996;BME280;3026;53.612;7.278;2023-02-26T12:51:28;102648.94;;;8.32;92.79
5996;BME280;3026;53.612;7.278;2023-02-26T12:54:09;102649.13;;;8.54;93.28
5996;BME280;3026;53.612;7.278;2023-02-26T12:57:01;102653.69;;;8.54;92.85
5996;BME280;3026;53.612;7.278;2023-02-26T12:59:42;102656.94;;;8.22;92.72
5996;BME280;3026;53.612;7.278;2023-02-26T13:02:45;102665.50;;;8.29;91.97
5996;BME280;3026;53.612;7.278;2023-02-26T13:05:33;102653.34;;;8.34;92.69
5996;BME280;3026;53.612;7.278;2023-02-26T13:08:11;102656.88;;;8.71;92.83
5996;BME280;3026;53.612;7.278;2023-02-26T13:10:50;102648.84;;;9.05;92.70
5996;BME280;3026;53.612;7.278;2023-02-26T13:13:44;102657.34;;;9.35;91.79
5996;BME280;3026;53.612;7.278;2023-02-26T13:16:23;102643.78;;;9.91;91.95
5996;BME280;3026;53.612;7.278;2023-02-26T13:18:57;102648.47;;;9.89;91.18
5996;BME280;3026;53.612;7.278;2023-02-26T13:21:31;102655.84;;;9.31;91.32
5996;BME280;3026;53.612;7.278;2023-02-26T13:24:04;102651.78;;;9.02;91.52
5996;BME280;3026;53.612;7.278;2023-02-26T13:26:33;102655.69;;;8.87;92.32
5996;BME280;3026;53.612;7.278;2023-02-26T13:29:04;102653.88;;;8.63;92.36
5996;BME280;3026;53.612;7.278;2023-02-26T13:31:33;102655.41;;;8.55;92.82
5996;BME280;3026;53.612;7.278;2023-02-26T13:34:05;102651.31;;;8.49;93.13
5996;BME280;3026;53.612;7.278;2023-02-26T13:36:36;102655.47;;;8.42;92.75